createdAt,value
2023-03-15T00:00:18.086Z,51.06
2023-03-15T00:01:18.200Z,50.85
2023-03-15T00:02:17.693Z,50.24
2023-03-15T00:03:18.079Z,49.82
2023-03-15T00:04:17.600Z,49.50
2023-03-15T00:05:17.906Z,49.07
2023-03-15T00:06:18.099Z,48.70
2023-03-15T00:07:17.559Z,48.25
2023-03-15T00:08:17.559Z,47.38
2023-03-15T00:09:17.566Z,46.85
2023-03-15T00:10:17.533Z,45.58
2023-03-15T00:11:18.078Z,44.90
2023-03-15T00:12:18.087Z,44.24
2023-03-15T00:13:18.078Z,43.74
2023-03-15T00:14:17.491Z,43.28
2023-03-15T00:15:18.093Z,43.02
2023-03-15T00:16:17.796Z,42.20
2023-03-15T00:17:17.444Z,41.62
2023-03-15T00:18:17.688Z,41.37
2023-03-15T00:19:17.406Z,40.97
2023-03-15T00:20:18.000Z,40.49
2023-03-15T00:21:17.590Z,40.07
2023-03-15T00:22:17.439Z,39.69
2023-03-15T00:23:17.360Z,39.28
2023-03-15T00:24:17.371Z,39.06
2023-03-15T00:25:17.338Z,38.67
2023-03-15T00:26:17.605Z,38.35
2023-03-15T00:27:18.087Z,38.04
2023-03-15T00:28:17.329Z,37.94
2023-03-15T00:29:17.342Z,37.50
2023-03-15T00:30:17.380Z,37.30
2023-03-15T00:31:17.446Z,37.27
2023-03-15T00:32:17.435Z,36.97
2023-03-15T00:33:17.511Z,36.84
2023-03-15T00:34:17.520Z,36.68
2023-03-15T00:35:17.516Z,36.40
2023-03-15T00:36:17.473Z,36.40
2023-03-15T00:37:17.283Z,36.15
2023-03-15T00:38:17.614Z,36.15
2023-03-15T00:39:17.185Z,35.90
2023-03-15T00:40:17.671Z,35.99
2023-03-15T00:41:17.184Z,35.87
2023-03-15T00:42:17.203Z,35.47
2023-03-15T00:43:17.129Z,35.53
2023-03-15T00:44:17.789Z,35.69
2023-03-15T00:45:17.126Z,35.69
2023-03-15T00:46:17.203Z,35.53
2023-03-15T00:47:17.105Z,35.84
2023-03-15T00:48:17.117Z,35.47
2023-03-15T00:49:17.079Z,35.69
2023-03-15T00:50:17.116Z,35.65
2023-03-15T00:51:17.117Z,35.50
2023-03-15T00:52:17.119Z,35.53
2023-03-15T00:53:17.115Z,35.24
2023-03-15T00:54:17.026Z,35.33
2023-03-15T00:55:17.116Z,35.21
2023-03-15T00:56:17.115Z,35.00
2023-03-15T00:57:16.988Z,34.80
2023-03-15T00:58:17.155Z,35.00
2023-03-15T00:59:16.940Z,34.92
2023-03-15T01:00:16.984Z,34.71
2023-03-15T01:01:16.984Z,34.80
2023-03-15T01:02:16.994Z,34.60
2023-03-15T01:03:17.057Z,34.32
2023-03-15T01:04:16.993Z,34.35
2023-03-15T01:05:16.875Z,34.23
2023-03-15T01:06:17.054Z,34.29
2023-03-15T01:07:17.026Z,34.23
2023-03-15T01:08:17.078Z,34.15
2023-03-15T01:09:17.085Z,34.10
2023-03-15T01:10:16.855Z,34.04
2023-03-15T01:11:17.128Z,34.04
2023-03-15T01:12:17.039Z,33.93
2023-03-15T01:13:17.123Z,33.82
2023-03-15T01:14:16.814Z,33.63
2023-03-15T01:15:16.765Z,33.93
2023-03-15T01:16:16.832Z,33.90
2023-03-15T01:17:16.828Z,33.77
2023-03-15T01:18:16.745Z,33.50
2023-03-15T01:19:16.893Z,33.47
2023-03-15T01:20:16.931Z,33.63
2023-03-15T01:21:16.706Z,33.42
2023-03-15T01:22:16.897Z,33.63
2023-03-15T01:23:17.019Z,33.47
2023-03-15T01:24:16.989Z,33.37
2023-03-15T01:25:16.940Z,33.13
2023-03-15T01:26:17.117Z,33.15
2023-03-15T01:27:17.136Z,33.13
2023-03-15T01:28:16.711Z,33.05
2023-03-15T01:29:17.206Z,33.10
2023-03-15T01:30:17.268Z,33.23
2023-03-15T01:31:16.634Z,33.10
2023-03-15T01:32:17.296Z,33.08
2023-03-15T01:33:16.627Z,33.13
2023-03-15T01:34:17.005Z,32.84
2023-03-15T01:35:16.783Z,33.08
2023-03-15T01:36:16.531Z,33.15
2023-03-15T01:37:16.524Z,33.15
2023-03-15T01:38:17.428Z,33.10
2023-03-15T01:39:16.484Z,33.42
2023-03-15T01:40:16.840Z,33.44
2023-03-15T01:41:17.149Z,33.52
2023-03-15T01:42:16.790Z,33.74
2023-03-15T01:43:16.814Z,33.88
2023-03-15T01:44:16.470Z,34.18
2023-03-15T01:45:16.410Z,33.93
2023-03-15T01:46:17.230Z,34.21
2023-03-15T01:47:17.147Z,34.04
2023-03-15T01:48:16.453Z,34.37
2023-03-15T01:49:17.157Z,34.51
2023-03-15T01:50:16.666Z,34.37
2023-03-15T01:51:17.089Z,34.60
2023-03-15T01:52:16.571Z,34.80
2023-03-15T01:53:16.706Z,34.83
2023-03-15T01:54:16.714Z,34.89
2023-03-15T01:55:17.162Z,34.92
2023-03-15T01:56:16.549Z,35.06
2023-03-15T01:57:16.517Z,35.06
2023-03-15T01:58:17.040Z,35.12
2023-03-15T01:59:16.273Z,35.21
2023-03-15T02:00:17.170Z,35.18
2023-03-15T02:01:17.002Z,35.12
2023-03-15T02:02:17.212Z,35.03
2023-03-15T02:03:16.217Z,35.00
2023-03-15T02:04:16.202Z,35.06
2023-03-15T02:05:16.189Z,35.06
2023-03-15T02:06:16.185Z,35.03
2023-03-15T02:07:16.144Z,35.00
2023-03-15T02:08:16.175Z,35.09
2023-03-15T02:09:16.139Z,35.18
2023-03-15T02:10:16.176Z,35.09
2023-03-15T02:11:16.165Z,35.33
2023-03-15T02:12:16.163Z,35.33
2023-03-15T02:13:16.179Z,35.33
2023-03-15T02:14:16.127Z,35.44
2023-03-15T02:15:16.173Z,35.60
2023-03-15T02:16:16.095Z,35.60
2023-03-15T02:17:16.043Z,36.02
2023-03-15T02:18:16.133Z,35.78
2023-03-15T02:19:16.022Z,36.21
2023-03-15T02:20:16.022Z,36.11
2023-03-15T02:21:16.043Z,36.15
2023-03-15T02:22:16.070Z,36.33
2023-03-15T02:23:16.058Z,36.33
2023-03-15T02:24:16.007Z,36.87
2023-03-15T02:25:15.941Z,36.91
2023-03-15T02:26:16.100Z,37.04
2023-03-15T02:27:16.128Z,37.10
2023-03-15T02:28:16.130Z,37.07
2023-03-15T02:29:16.136Z,37.04
2023-03-15T02:30:16.147Z,37.13
2023-03-15T02:31:15.935Z,37.17
2023-03-15T02:32:15.883Z,37.07
2023-03-15T02:33:15.857Z,37.63
2023-03-15T02:34:15.999Z,37.47
2023-03-15T02:35:15.827Z,37.40
2023-03-15T02:36:16.204Z,37.33
2023-03-15T02:37:16.069Z,37.47
2023-03-15T02:38:15.819Z,37.56
2023-03-15T02:39:16.196Z,37.60
2023-03-15T02:40:15.784Z,37.56
2023-03-15T02:41:15.764Z,37.80
2023-03-15T02:42:16.181Z,37.77
2023-03-15T02:43:15.738Z,37.47
2023-03-15T02:44:17.207Z,37.67
2023-03-15T02:45:16.062Z,37.37
2023-03-15T02:46:16.310Z,37.50
2023-03-15T02:47:16.399Z,37.37
2023-03-15T02:48:15.768Z,37.27
2023-03-15T02:49:15.688Z,37.23
2023-03-15T02:50:15.677Z,37.37
2023-03-15T02:51:15.638Z,37.77
2023-03-15T02:52:15.698Z,37.77
2023-03-15T02:53:15.722Z,37.94
2023-03-15T02:54:15.769Z,38.08
2023-03-15T02:55:15.780Z,38.42
2023-03-15T02:56:15.607Z,38.67
2023-03-15T02:57:15.855Z,38.92
2023-03-15T02:58:15.884Z,39.28
2023-03-15T02:59:15.549Z,39.54
2023-03-15T03:00:15.688Z,39.88
2023-03-15T03:01:16.024Z,40.03
2023-03-15T03:02:15.767Z,40.18
2023-03-15T03:03:15.512Z,40.30
2023-03-15T03:04:15.517Z,40.26
2023-03-15T03:05:15.486Z,40.11
2023-03-15T03:06:15.953Z,40.30
2023-03-15T03:07:15.469Z,40.30
2023-03-15T03:08:15.489Z,39.99
2023-03-15T03:09:16.126Z,39.80
2023-03-15T03:10:15.502Z,39.69
2023-03-15T03:11:16.173Z,39.25
2023-03-15T03:12:15.426Z,39.39
2023-03-15T03:13:15.391Z,39.14
2023-03-15T03:14:16.014Z,38.99
2023-03-15T03:15:15.371Z,38.88
2023-03-15T03:16:15.425Z,38.78
2023-03-15T03:17:16.110Z,38.74
2023-03-15T03:18:16.226Z,38.88
2023-03-15T03:19:15.366Z,38.99
2023-03-15T03:20:15.322Z,39.06
2023-03-15T03:21:15.299Z,39.17
2023-03-15T03:22:16.146Z,38.99
2023-03-15T03:23:15.593Z,39.06
2023-03-15T03:24:15.266Z,38.85
2023-03-15T03:25:15.242Z,38.96
2023-03-15T03:26:15.250Z,38.81
2023-03-15T03:27:15.243Z,38.56
2023-03-15T03:28:15.244Z,38.56
2023-03-15T03:29:15.195Z,38.42
2023-03-15T03:30:15.213Z,38.39
2023-03-15T03:31:15.341Z,38.32
2023-03-15T03:32:15.232Z,38.28
2023-03-15T03:33:15.222Z,38.35
2023-03-15T03:34:15.190Z,38.14
2023-03-15T03:35:16.243Z,38.25
2023-03-15T03:36:15.235Z,38.42
2023-03-15T03:37:15.124Z,38.53
2023-03-15T03:38:15.107Z,38.85
2023-03-15T03:39:15.086Z,39.03
2023-03-15T03:40:15.108Z,38.96
2023-03-15T03:41:15.140Z,39.14
2023-03-15T03:42:15.143Z,39.17
2023-03-15T03:43:15.143Z,39.43
2023-03-15T03:44:15.041Z,39.28
2023-03-15T03:45:15.005Z,39.39
2023-03-15T03:46:15.237Z,39.21
2023-03-15T03:47:15.192Z,39.21
2023-03-15T03:48:15.022Z,39.17
2023-03-15T03:49:15.225Z,39.21
2023-03-15T03:50:14.986Z,39.43
2023-03-15T03:51:15.232Z,39.36
2023-03-15T03:52:14.942Z,40.61
2023-03-15T03:53:15.242Z,42.84
2023-03-15T03:54:17.530Z,44.90
2023-03-15T03:55:14.896Z,48.08
2023-03-15T03:56:15.155Z,50.94
2023-03-15T03:57:15.253Z,53.98
2023-03-15T03:58:14.881Z,56.56
2023-03-15T03:59:15.020Z,58.57
2023-03-15T04:00:14.862Z,60.55
2023-03-15T04:01:14.902Z,62.30
2023-03-15T04:02:14.997Z,64.40
2023-03-15T04:03:14.826Z,67.02
2023-03-15T04:04:14.951Z,68.39
2023-03-15T04:05:14.995Z,69.06
2023-03-15T04:06:14.781Z,69.46
2023-03-15T04:07:17.028Z,69.00
2023-03-15T04:08:15.022Z,68.33
2023-03-15T04:09:14.780Z,68.22
2023-03-15T04:10:15.267Z,67.78
2023-03-15T04:11:15.174Z,66.76
2023-03-15T04:12:14.929Z,66.18
2023-03-15T04:13:15.261Z,65.10
2023-03-15T04:14:14.699Z,64.55
2023-03-15T04:15:15.253Z,63.67
2023-03-15T04:16:14.733Z,62.86
2023-03-15T04:17:14.781Z,61.94
2023-03-15T04:18:14.685Z,61.08
2023-03-15T04:19:14.644Z,60.21
2023-03-15T04:20:14.868Z,59.36
2023-03-15T04:21:14.716Z,59.06
2023-03-15T04:22:15.266Z,58.86
2023-03-15T04:23:15.268Z,58.29
2023-03-15T04:24:14.575Z,57.61
2023-03-15T04:25:14.574Z,56.83
2023-03-15T04:26:14.561Z,56.22
2023-03-15T04:27:14.704Z,55.26
2023-03-15T04:28:14.617Z,54.90
2023-03-15T04:29:14.655Z,54.19
2023-03-15T04:30:14.664Z,53.50
2023-03-15T04:31:14.818Z,52.86
2023-03-15T04:32:14.626Z,51.95
2023-03-15T04:33:14.780Z,51.19
2023-03-15T04:34:14.804Z,50.88
2023-03-15T04:35:14.837Z,49.73
2023-03-15T04:36:14.441Z,49.04
2023-03-15T04:37:14.893Z,48.33
2023-03-15T04:38:14.915Z,47.76
2023-03-15T04:39:14.957Z,47.06
2023-03-15T04:40:14.613Z,46.13
2023-03-15T04:41:14.834Z,45.88
2023-03-15T04:42:15.036Z,45.14
2023-03-15T04:43:14.708Z,44.76
2023-03-15T04:44:14.707Z,44.10
2023-03-15T04:45:14.406Z,43.64
2023-03-15T04:46:14.403Z,43.51
2023-03-15T04:47:14.333Z,42.89
2023-03-15T04:48:14.295Z,42.71
2023-03-15T04:49:14.300Z,42.46
2023-03-15T04:50:14.286Z,42.20
2023-03-15T04:51:14.310Z,42.03
2023-03-15T04:52:14.289Z,41.29
2023-03-15T04:53:14.300Z,41.01
2023-03-15T04:54:14.294Z,40.61
2023-03-15T04:55:14.312Z,40.46
2023-03-15T04:56:14.209Z,40.03
2023-03-15T04:57:14.228Z,39.73
2023-03-15T04:58:14.212Z,39.21
2023-03-15T04:59:14.192Z,38.78
2023-03-15T05:00:14.178Z,38.60
2023-03-15T05:01:14.340Z,38.21
2023-03-15T05:02:14.166Z,37.94
2023-03-15T05:03:14.296Z,37.73
2023-03-15T05:04:14.109Z,37.17
2023-03-15T05:05:14.361Z,36.84
2023-03-15T05:06:14.299Z,36.58
2023-03-15T05:07:14.113Z,36.52
2023-03-15T05:08:14.083Z,36.15
2023-03-15T05:09:14.309Z,35.87
2023-03-15T05:10:14.381Z,35.60
2023-03-15T05:11:14.316Z,35.42
2023-03-15T05:12:14.046Z,35.24
2023-03-15T05:13:14.044Z,35.12
2023-03-15T05:14:14.025Z,34.77
2023-03-15T05:15:14.050Z,34.77
2023-03-15T05:16:14.119Z,34.66
2023-03-15T05:17:14.067Z,34.51
2023-03-15T05:18:13.950Z,34.63
2023-03-15T05:19:13.958Z,34.29
2023-03-15T05:20:13.932Z,34.35
2023-03-15T05:21:14.219Z,34.21
2023-03-15T05:22:14.253Z,34.04
2023-03-15T05:23:13.909Z,33.79
2023-03-15T05:24:14.310Z,33.71
2023-03-15T05:25:14.321Z,33.50
2023-03-15T05:26:13.867Z,33.42
2023-03-15T05:27:13.897Z,33.58
2023-03-15T05:28:13.842Z,33.50
2023-03-15T05:29:14.325Z,33.52
2023-03-15T05:30:13.982Z,33.52
2023-03-15T05:31:13.820Z,33.58
2023-03-15T05:32:14.321Z,33.82
2023-03-15T05:33:14.310Z,33.74
2023-03-15T05:34:13.768Z,33.96
2023-03-15T05:35:14.327Z,34.01
2023-03-15T05:36:13.743Z,34.01
2023-03-15T05:37:14.330Z,34.18
2023-03-15T05:38:14.329Z,34.18
2023-03-15T05:39:13.715Z,34.23
2023-03-15T05:40:13.829Z,34.32
2023-03-15T05:41:14.333Z,34.21
2023-03-15T05:42:13.696Z,34.51
2023-03-15T05:43:13.678Z,34.26
2023-03-15T05:44:13.646Z,34.46
2023-03-15T05:45:14.328Z,34.32
2023-03-15T05:46:14.394Z,34.60
2023-03-15T05:47:13.662Z,34.40
2023-03-15T05:48:14.330Z,34.46
2023-03-15T05:49:14.339Z,34.54
2023-03-15T05:50:13.595Z,34.54
2023-03-15T05:51:14.338Z,34.57
2023-03-15T05:52:13.580Z,34.71
2023-03-15T05:53:13.581Z,34.86
2023-03-15T05:54:14.335Z,35.03
2023-03-15T05:55:13.553Z,34.97
2023-03-15T05:56:14.668Z,35.15
2023-03-15T05:57:14.346Z,35.24
2023-03-15T05:58:14.072Z,35.33
2023-03-15T05:59:14.348Z,35.35
2023-03-15T06:00:14.156Z,35.42
2023-03-15T06:01:14.350Z,35.38
2023-03-15T06:02:13.461Z,35.24
2023-03-15T06:03:13.483Z,35.18
2023-03-15T06:04:13.585Z,35.21
2023-03-15T06:05:13.519Z,34.89
2023-03-15T06:06:13.545Z,34.94
2023-03-15T06:07:13.404Z,34.74
2023-03-15T06:08:13.386Z,34.77
2023-03-15T06:09:13.381Z,34.97
2023-03-15T06:10:13.361Z,34.60
2023-03-15T06:11:13.362Z,34.74
2023-03-15T06:12:13.347Z,34.46
2023-03-15T06:13:13.351Z,34.37
2023-03-15T06:14:13.352Z,34.60
2023-03-15T06:15:13.356Z,34.51
2023-03-15T06:16:13.296Z,34.49
2023-03-15T06:17:13.358Z,34.18
2023-03-15T06:18:13.255Z,34.40
2023-03-15T06:19:13.293Z,34.07
2023-03-15T06:20:13.280Z,34.32
2023-03-15T06:21:13.298Z,34.21
2023-03-15T06:22:13.220Z,33.96
2023-03-15T06:23:13.214Z,34.15
2023-03-15T06:24:13.196Z,33.85
2023-03-15T06:25:13.348Z,33.63
2023-03-15T06:26:13.164Z,33.71
2023-03-15T06:27:13.174Z,33.31
2023-03-15T06:28:13.363Z,33.31
2023-03-15T06:29:13.362Z,33.00
2023-03-15T06:30:15.906Z,33.08
2023-03-15T06:31:13.169Z,32.79
2023-03-15T06:32:13.094Z,32.79
2023-03-15T06:33:13.368Z,32.90
2023-03-15T06:34:13.077Z,32.84
2023-03-15T06:35:13.101Z,32.59
2023-03-15T06:36:13.365Z,32.54
2023-03-15T06:37:14.690Z,32.79
2023-03-15T06:38:13.363Z,32.69
2023-03-15T06:39:13.048Z,32.59
2023-03-15T06:40:13.019Z,32.41
2023-03-15T06:41:13.375Z,32.04
2023-03-15T06:42:12.987Z,32.22
2023-03-15T06:43:13.374Z,31.97
2023-03-15T06:44:13.384Z,31.87
2023-03-15T06:45:12.998Z,31.85
2023-03-15T06:46:13.423Z,31.87
2023-03-15T06:47:13.382Z,31.63
2023-03-15T06:48:12.914Z,31.92
2023-03-15T06:49:13.384Z,31.80
2023-03-15T06:50:12.911Z,31.80
2023-03-15T06:51:12.907Z,31.75
2023-03-15T06:52:12.944Z,31.85
2023-03-15T06:53:12.880Z,31.80
2023-03-15T06:54:12.845Z,31.66
2023-03-15T06:55:12.879Z,31.70
2023-03-15T06:56:12.827Z,31.49
2023-03-15T06:57:12.852Z,31.44
2023-03-15T06:58:12.815Z,31.37
2023-03-15T06:59:12.804Z,31.37
2023-03-15T07:00:13.192Z,31.37
2023-03-15T07:01:12.822Z,30.94
2023-03-15T07:02:12.792Z,30.98
2023-03-15T07:03:12.777Z,30.91
2023-03-15T07:04:12.754Z,30.84
2023-03-15T07:05:12.768Z,30.84
2023-03-15T07:06:12.707Z,30.58
2023-03-15T07:07:12.735Z,30.62
2023-03-15T07:08:13.396Z,30.47
2023-03-15T07:09:12.700Z,30.42
2023-03-15T07:10:12.692Z,30.58
2023-03-15T07:11:12.682Z,30.44
2023-03-15T07:12:12.658Z,30.23
2023-03-15T07:13:12.649Z,30.18
2023-03-15T07:14:12.618Z,30.18
2023-03-15T07:15:12.649Z,29.97
2023-03-15T07:16:13.054Z,30.01
2023-03-15T07:17:13.408Z,30.12
2023-03-15T07:18:13.401Z,30.09
2023-03-15T07:19:12.579Z,30.05
2023-03-15T07:20:12.571Z,30.05
2023-03-15T07:21:13.404Z,30.09
2023-03-15T07:22:13.402Z,30.07
2023-03-15T07:23:13.412Z,30.07
2023-03-15T07:24:13.392Z,29.99
2023-03-15T07:25:13.298Z,30.05
2023-03-15T07:26:13.402Z,30.09
2023-03-15T07:27:15.116Z,30.18
2023-03-15T07:28:12.457Z,30.14
2023-03-15T07:29:12.496Z,30.18
2023-03-15T07:30:12.451Z,30.29
2023-03-15T07:31:12.438Z,30.40
2023-03-15T07:32:12.470Z,30.38
2023-03-15T07:33:12.465Z,30.38
2023-03-15T07:34:12.411Z,30.40
2023-03-15T07:35:13.555Z,30.40
2023-03-15T07:36:12.363Z,30.42
2023-03-15T07:37:12.391Z,30.49
2023-03-15T07:38:12.341Z,30.62
2023-03-15T07:39:12.353Z,30.64
2023-03-15T07:40:12.370Z,30.58
2023-03-15T07:41:12.392Z,30.49
2023-03-15T07:42:12.407Z,30.49
2023-03-15T07:43:12.288Z,30.64
2023-03-15T07:44:12.282Z,30.60
2023-03-15T07:45:12.437Z,30.87
2023-03-15T07:46:12.302Z,30.69
2023-03-15T07:47:12.423Z,30.91
2023-03-15T07:48:12.465Z,30.91
2023-03-15T07:49:12.424Z,31.23
2023-03-15T07:50:13.216Z,31.37
2023-03-15T07:51:12.204Z,31.59
2023-03-15T07:52:12.172Z,31.75
2023-03-15T07:53:12.445Z,32.14
2023-03-15T07:54:12.148Z,32.31
2023-03-15T07:55:12.211Z,32.49
2023-03-15T07:56:12.425Z,32.67
2023-03-15T07:57:12.122Z,33.02
2023-03-15T07:58:12.207Z,33.26
2023-03-15T07:59:12.100Z,33.39
2023-03-15T08:00:12.112Z,33.66
2023-03-15T08:01:12.073Z,33.82
2023-03-15T08:02:12.087Z,34.12
2023-03-15T08:03:12.488Z,34.35
2023-03-15T08:04:12.435Z,34.63
2023-03-15T08:05:12.092Z,35.15
2023-03-15T08:06:12.440Z,35.72
2023-03-15T08:07:12.031Z,36.30
2023-03-15T08:08:12.002Z,37.23
2023-03-15T08:09:12.046Z,37.87
2023-03-15T08:10:11.983Z,38.35
2023-03-15T08:11:13.435Z,38.74
2023-03-15T08:12:12.421Z,39.10
2023-03-15T08:13:11.945Z,39.28
2023-03-15T08:14:12.424Z,39.54
2023-03-15T08:15:11.918Z,39.92
2023-03-15T08:16:11.988Z,40.22
2023-03-15T08:17:11.904Z,39.92
2023-03-15T08:18:11.875Z,40.22
2023-03-15T08:19:12.445Z,40.30
2023-03-15T08:20:12.440Z,40.30
2023-03-15T08:21:12.453Z,40.34
2023-03-15T08:22:12.402Z,40.53
2023-03-15T08:23:11.814Z,40.81
2023-03-15T08:24:12.448Z,40.85
2023-03-15T08:25:11.825Z,40.53
2023-03-15T08:26:11.778Z,40.85
2023-03-15T08:27:11.815Z,40.77
2023-03-15T08:28:11.838Z,40.49
2023-03-15T08:29:11.753Z,40.61
2023-03-15T08:30:11.914Z,40.53
2023-03-15T08:31:11.729Z,40.42
2023-03-15T08:32:11.727Z,40.22
2023-03-15T08:33:11.989Z,40.03
2023-03-15T08:34:11.704Z,39.88
2023-03-15T08:35:12.344Z,39.69
2023-03-15T08:36:12.109Z,39.54
2023-03-15T08:37:12.113Z,39.10
2023-03-15T08:38:11.647Z,39.21
2023-03-15T08:39:11.626Z,38.88
2023-03-15T08:40:11.650Z,38.53
2023-03-15T08:41:11.605Z,38.56
2023-03-15T08:42:12.027Z,38.35
2023-03-15T08:43:11.877Z,38.25
2023-03-15T08:44:12.347Z,38.14
2023-03-15T08:45:11.584Z,38.04
2023-03-15T08:46:12.422Z,38.01
2023-03-15T08:47:11.538Z,37.73
2023-03-15T08:48:11.562Z,37.67
2023-03-15T08:49:12.395Z,37.70
2023-03-15T08:50:12.306Z,37.50
2023-03-15T08:51:11.558Z,37.20
2023-03-15T08:52:11.495Z,37.37
2023-03-15T08:53:11.453Z,37.13
2023-03-15T08:54:11.608Z,37.27
2023-03-15T08:55:12.324Z,37.10
2023-03-15T08:56:11.437Z,37.07
2023-03-15T08:57:11.443Z,37.04
2023-03-15T08:58:11.412Z,36.97
2023-03-15T08:59:12.899Z,36.84
2023-03-15T09:00:11.465Z,36.78
2023-03-15T09:01:11.403Z,36.74
2023-03-15T09:02:11.580Z,36.87
2023-03-15T09:03:11.497Z,36.71
2023-03-15T09:04:11.429Z,36.78
2023-03-15T09:05:11.328Z,36.68
2023-03-15T09:06:11.566Z,36.58
2023-03-15T09:07:11.304Z,36.46
2023-03-15T09:08:11.325Z,36.46
2023-03-15T09:09:11.485Z,36.74
2023-03-15T09:10:11.300Z,37.07
2023-03-15T09:11:11.484Z,37.40
2023-03-15T09:12:11.252Z,37.83
2023-03-15T09:13:11.237Z,37.97
2023-03-15T09:14:11.227Z,38.74
2023-03-15T09:15:11.261Z,39.54
2023-03-15T09:16:11.373Z,40.69
2023-03-15T09:17:11.330Z,41.33
2023-03-15T09:18:11.408Z,42.50
2023-03-15T09:19:11.160Z,43.83
2023-03-15T09:20:11.145Z,45.39
2023-03-15T09:21:11.151Z,47.33
2023-03-15T09:22:17.217Z,49.33
2023-03-15T09:23:12.488Z,50.21
2023-03-15T09:24:11.488Z,50.76
2023-03-15T09:25:11.116Z,51.25
2023-03-15T09:26:11.671Z,50.88
2023-03-15T09:27:11.072Z,50.33
2023-03-15T09:28:11.087Z,50.03
2023-03-15T09:29:11.541Z,49.59
2023-03-15T09:30:11.074Z,49.15
2023-03-15T09:31:11.148Z,48.87
2023-03-15T09:32:11.502Z,49.15
2023-03-15T09:33:10.989Z,48.92
2023-03-15T09:34:11.506Z,48.61
2023-03-15T09:35:10.975Z,48.53
2023-03-15T09:36:10.975Z,49.30
2023-03-15T09:37:10.971Z,50.54
2023-03-15T09:38:10.965Z,52.01
2023-03-15T09:39:11.086Z,55.70
2023-03-15T09:40:11.510Z,58.78
2023-03-15T09:41:10.935Z,60.33
2023-03-15T09:42:10.922Z,61.35
2023-03-15T09:43:10.885Z,61.39
2023-03-15T09:44:10.897Z,61.75
2023-03-15T09:45:10.856Z,62.30
2023-03-15T09:46:11.576Z,63.62
2023-03-15T09:47:11.079Z,65.66
2023-03-15T09:48:11.057Z,68.27
2023-03-15T09:49:10.812Z,69.63
2023-03-15T09:50:10.831Z,73.53
2023-03-15T09:51:10.791Z,76.26
2023-03-15T09:52:10.804Z,79.29
2023-03-15T09:53:10.771Z,80.89
2023-03-15T09:54:10.765Z,82.31
2023-03-15T09:55:11.097Z,82.88
2023-03-15T09:56:11.535Z,84.04
2023-03-15T09:57:11.519Z,85.84
2023-03-15T09:58:11.138Z,89.03
2023-03-15T09:59:10.710Z,92.86
2023-03-15T10:00:10.720Z,95.04
2023-03-15T10:01:10.809Z,101.40
2023-03-15T10:02:10.780Z,109.17
2023-03-15T10:03:10.812Z,117.57
2023-03-15T10:04:10.839Z,125.75
2023-03-15T10:05:10.623Z,132.59
2023-03-15T10:06:10.890Z,139.06
2023-03-15T10:07:10.617Z,142.72
2023-03-15T10:08:10.641Z,146.96
2023-03-15T10:09:10.600Z,151.46
2023-03-15T10:10:11.011Z,157.42
2023-03-15T10:11:10.605Z,164.99
2023-03-15T10:12:10.578Z,169.48
2023-03-15T10:13:10.540Z,179.05
2023-03-15T10:14:10.529Z,187.55
2023-03-15T10:15:10.501Z,194.05
2023-03-15T10:16:10.562Z,200.04
2023-03-15T10:17:10.509Z,204.75
2023-03-15T10:18:10.512Z,208.75
2023-03-15T10:19:10.555Z,212.10
2023-03-15T10:20:10.564Z,212.38
2023-03-15T10:21:10.426Z,214.16
2023-03-15T10:22:10.444Z,213.89
2023-03-15T10:23:10.422Z,216.98
2023-03-15T10:24:10.424Z,212.51
2023-03-15T10:25:10.383Z,212.51
2023-03-15T10:26:11.249Z,211.15
2023-03-15T10:27:10.537Z,213.06
2023-03-15T10:28:10.362Z,217.83
2023-03-15T10:29:10.361Z,222.68
2023-03-15T10:30:10.597Z,229.64
2023-03-15T10:31:10.364Z,232.87
2023-03-15T10:32:10.341Z,237.56
2023-03-15T10:33:10.297Z,252.43
2023-03-15T10:34:10.321Z,262.66
2023-03-15T10:35:10.282Z,266.26
2023-03-15T10:36:11.725Z,269.30
2023-03-15T10:37:10.242Z,276.97
2023-03-15T10:38:10.259Z,285.58
2023-03-15T10:39:10.212Z,282.65
2023-03-15T10:40:10.242Z,274.67
2023-03-15T10:41:11.588Z,270.84
2023-03-15T10:42:10.553Z,267.33
2023-03-15T10:43:10.545Z,265.19
2023-03-15T10:44:10.362Z,258.55
2023-03-15T10:45:10.165Z,254.96
2023-03-15T10:46:10.236Z,246.78
2023-03-15T10:47:22.597Z,244.95
2023-03-15T10:48:11.141Z,237.90
2023-03-15T10:49:10.104Z,230.60
2023-03-15T10:50:10.116Z,225.87
2023-03-15T10:51:11.657Z,221.93
2023-03-15T10:52:10.091Z,215.56
2023-03-15T10:53:10.085Z,208.36
2023-03-15T10:54:10.067Z,204.24
2023-03-15T10:55:10.052Z,198.36
2023-03-15T10:56:10.041Z,194.96
2023-03-15T10:57:10.491Z,191.24
2023-03-15T10:58:10.007Z,186.71
2023-03-15T10:59:12.938Z,184.75
2023-03-15T11:00:09.989Z,181.76
2023-03-15T11:01:09.957Z,178.67
2023-03-15T11:02:09.965Z,176.23
2023-03-15T11:03:09.941Z,174.58
2023-03-15T11:04:09.959Z,174.77
2023-03-15T11:05:09.970Z,171.73
2023-03-15T11:06:09.947Z,170.34
2023-03-15T11:07:10.574Z,176.42
2023-03-15T11:08:10.565Z,178.67
2023-03-15T11:09:09.995Z,182.94
2023-03-15T11:10:09.887Z,187.98
2023-03-15T11:11:09.849Z,194.16
2023-03-15T11:12:09.873Z,202.99
2023-03-15T11:13:09.825Z,205.38
2023-03-15T11:14:09.836Z,207.84
2023-03-15T11:15:10.557Z,209.55
2023-03-15T11:16:09.921Z,211.42
2023-03-15T11:17:09.804Z,213.47
2023-03-15T11:18:09.770Z,216.98
2023-03-15T11:19:09.746Z,220.15
2023-03-15T11:20:09.755Z,215.42
2023-03-15T11:21:09.769Z,216.69
2023-03-15T11:22:09.771Z,227.27
2023-03-15T11:23:10.574Z,234.69
2023-03-15T11:24:09.706Z,243.69
2023-03-15T11:25:09.690Z,251.09
2023-03-15T11:26:10.812Z,255.36
2023-03-15T11:27:09.662Z,258.35
2023-03-15T11:28:09.661Z,258.35
2023-03-15T11:29:09.638Z,263.50
2023-03-15T11:30:09.644Z,269.08
2023-03-15T11:31:09.671Z,277.90
2023-03-15T11:32:09.632Z,281.45
2023-03-15T11:33:09.591Z,282.41
2023-03-15T11:34:09.601Z,280.02
2023-03-15T11:35:09.571Z,276.27
2023-03-15T11:36:12.171Z,274.21
2023-03-15T11:37:11.564Z,272.40
2023-03-15T11:38:15.678Z,266.04
2023-03-15T11:39:10.605Z,264.13
2023-03-15T11:40:12.070Z,259.77
2023-03-15T11:41:09.505Z,256.35
2023-03-15T11:42:11.178Z,252.05
2023-03-15T11:43:09.491Z,248.82
2023-03-15T11:44:09.605Z,244.59
2023-03-15T11:45:09.459Z,242.97
2023-03-15T11:46:09.536Z,238.93
2023-03-15T11:47:09.599Z,233.20
2023-03-15T11:48:09.463Z,230.28
2023-03-15T11:49:09.413Z,227.58
2023-03-15T11:50:09.604Z,226.80
2023-03-15T11:51:09.424Z,230.28
2023-03-15T11:52:09.387Z,230.76
2023-03-15T11:53:09.389Z,232.54
2023-03-15T11:54:09.374Z,237.22
2023-03-15T11:55:09.605Z,246.23
2023-03-15T11:56:09.348Z,250.71
2023-03-15T11:57:09.323Z,258.15
2023-03-15T11:58:09.350Z,268.64
2023-03-15T11:59:09.309Z,277.43
2023-03-15T12:00:09.393Z,280.49
2023-03-15T12:01:09.270Z,277.66
2023-03-15T12:02:09.315Z,275.35
2023-03-15T12:03:09.321Z,276.50
2023-03-15T12:04:09.267Z,274.44
2023-03-15T12:05:18.042Z,273.76
2023-03-15T12:06:10.617Z,279.78
2023-03-15T12:07:09.209Z,288.57
2023-03-15T12:08:09.213Z,295.27
2023-03-15T12:09:09.191Z,297.40
2023-03-15T12:10:09.210Z,303.12
2023-03-15T12:11:09.630Z,306.78
2023-03-15T12:12:09.181Z,308.79
2023-03-15T12:13:09.139Z,309.66
2023-03-15T12:14:09.617Z,310.82
2023-03-15T12:15:09.144Z,313.77
2023-03-15T12:16:09.116Z,319.84
2023-03-15T12:17:09.089Z,321.08
2023-03-15T12:18:09.092Z,325.83
2023-03-15T12:19:10.154Z,331.72
2023-03-15T12:20:09.086Z,334.74
2023-03-15T12:21:09.065Z,345.23
2023-03-15T12:22:09.066Z,353.72
2023-03-15T12:23:09.016Z,359.89
2023-03-15T12:24:09.040Z,363.45
2023-03-15T12:25:08.997Z,367.90
2023-03-15T12:26:09.008Z,370.79
2023-03-15T12:27:09.234Z,375.42
2023-03-15T12:28:09.328Z,378.07
2023-03-15T12:29:08.980Z,381.07
2023-03-15T12:30:08.953Z,379.35
2023-03-15T12:31:08.983Z,376.27
2023-03-15T12:32:08.932Z,379.35
2023-03-15T12:33:08.909Z,385.22
2023-03-15T12:34:08.932Z,391.05
2023-03-15T12:35:09.540Z,394.03
2023-03-15T12:36:08.997Z,397.06
2023-03-15T12:37:08.875Z,398.71
2023-03-15T12:38:08.861Z,399.66
2023-03-15T12:39:08.852Z,402.53
2023-03-15T12:40:08.846Z,408.16
2023-03-15T12:41:08.813Z,416.51
2023-03-15T12:42:08.807Z,419.89
2023-03-15T12:43:09.770Z,422.00
2023-03-15T12:44:09.645Z,419.37
2023-03-15T12:45:09.002Z,411.15
2023-03-15T12:46:08.796Z,414.71
2023-03-15T12:47:08.751Z,430.93